createdAt,value
2018-03-31T00:01:04.323Z,89.30
2018-03-31T00:03:31.434Z,89.10
2018-03-31T00:05:58.538Z,88.90
2018-03-31T00:08:25.665Z,88.90
2018-03-31T00:10:52.778Z,89.50
2018-03-31T00:13:19.895Z,89.70
2018-03-31T00:15:46.959Z,89.60
2018-03-31T00:18:14.063Z,89.70
2018-03-31T00:20:41.133Z,89.80
2018-03-31T00:23:08.222Z,89.60
2018-03-31T00:25:35.294Z,89.50
2018-03-31T00:28:02.452Z,89.80
2018-03-31T00:30:29.568Z,89.60
2018-03-31T00:32:56.675Z,89.30
2018-03-31T00:35:23.733Z,89.30
2018-03-31T00:37:50.787Z,89.40
2018-03-31T00:40:17.854Z,89.50
2018-03-31T00:42:44.933Z,89.50
2018-03-31T00:45:12.041Z,89.40
2018-03-31T00:47:39.542Z,89.50
2018-03-31T00:50:06.656Z,89.50
2018-03-31T00:52:34.123Z,89.50
2018-03-31T00:55:01.218Z,89.50
2018-03-31T00:57:28.310Z,89.60
2018-03-31T00:59:55.420Z,89.80
2018-03-31T01:02:22.535Z,89.90
2018-03-31T01:04:49.634Z,90.10
2018-03-31T01:07:16.909Z,90.10
2018-03-31T01:09:44.012Z,90.20
2018-03-31T01:12:11.125Z,90.10
2018-03-31T01:14:38.232Z,90.10
2018-03-31T01:17:05.360Z,90.10
2018-03-31T01:19:32.512Z,90.10
2018-03-31T01:21:59.631Z,90.10
2018-03-31T01:24:26.735Z,90.20
2018-03-31T01:26:53.856Z,90.30
2018-03-31T01:29:20.967Z,90.40
2018-03-31T01:31:48.083Z,90.50
2018-03-31T01:34:15.204Z,90.50
2018-03-31T01:36:42.324Z,90.40
2018-03-31T01:39:09.400Z,90.30
2018-03-31T01:41:36.903Z,90.30
2018-03-31T01:44:03.972Z,90.30
2018-03-31T01:46:31.091Z,90.30
2018-03-31T01:48:58.208Z,90.50
2018-03-31T01:51:25.319Z,90.50
2018-03-31T01:53:52.398Z,90.60
2018-03-31T01:56:19.492Z,90.60
2018-03-31T01:58:46.564Z,90.70
2018-03-31T02:01:13.664Z,90.60
2018-03-31T02:03:40.749Z,90.50
2018-03-31T02:06:07.855Z,90.40
2018-03-31T02:08:34.929Z,90.30
2018-03-31T02:11:02.048Z,90.10
2018-03-31T02:13:29.111Z,90.10
2018-03-31T02:15:56.186Z,90.10
2018-03-31T02:18:23.238Z,90.10
2018-03-31T02:20:50.387Z,90.00
2018-03-31T02:23:17.487Z,90.10
2018-03-31T02:25:44.611Z,90.40
2018-03-31T02:28:11.724Z,90.30
2018-03-31T02:30:38.841Z,90.10
2018-03-31T02:33:05.917Z,90.20
2018-03-31T02:35:33.081Z,90.40
2018-03-31T02:38:00.190Z,90.60
2018-03-31T02:40:27.270Z,90.70
2018-03-31T02:42:54.411Z,90.80
2018-03-31T02:45:21.508Z,91.00
2018-03-31T02:47:48.631Z,91.00
2018-03-31T02:50:15.723Z,91.00
2018-03-31T02:52:42.840Z,91.00
2018-03-31T02:55:10.401Z,91.00
2018-03-31T02:57:37.440Z,91.00
2018-03-31T03:00:04.557Z,90.90
2018-03-31T03:02:31.640Z,90.70
2018-03-31T03:04:58.710Z,90.60
2018-03-31T03:07:25.818Z,90.50
2018-03-31T03:09:52.928Z,90.50
2018-03-31T03:12:20.074Z,90.30
2018-03-31T03:14:47.193Z,90.10
2018-03-31T03:17:14.274Z,90.00
2018-03-31T03:19:41.379Z,90.00
2018-03-31T03:22:08.498Z,89.90
2018-03-31T03:24:35.745Z,89.90
2018-03-31T03:27:02.861Z,89.30
2018-03-31T03:29:30.367Z,89.10
2018-03-31T03:31:57.852Z,89.10
2018-03-31T03:34:24.964Z,89.10
2018-03-31T03:36:52.472Z,89.10
2018-03-31T03:39:19.548Z,89.10
2018-03-31T03:41:46.648Z,89.20
2018-03-31T03:44:13.720Z,89.30
2018-03-31T03:46:40.824Z,89.30
2018-03-31T03:49:07.940Z,89.30
2018-03-31T03:51:35.024Z,89.40
2018-03-31T03:54:02.119Z,89.40
2018-03-31T03:56:29.179Z,89.50
2018-03-31T03:58:56.295Z,89.50
2018-03-31T04:01:23.415Z,89.40
2018-03-31T04:03:50.523Z,89.60
2018-03-31T04:06:17.628Z,89.50
2018-03-31T04:08:44.732Z,89.50
2018-03-31T04:11:11.812Z,89.50
2018-03-31T04:13:38.964Z,89.50
2018-03-31T04:16:06.075Z,89.50
2018-03-31T04:18:33.194Z,89.60
2018-03-31T04:21:00.324Z,89.70
2018-03-31T04:23:27.443Z,89.80
2018-03-31T04:25:54.532Z,89.70
2018-03-31T04:28:21.687Z,89.80
2018-03-31T04:30:48.808Z,89.80
2018-03-31T04:33:15.912Z,89.80
2018-03-31T04:35:43.418Z,89.90
2018-03-31T04:38:10.553Z,89.90
2018-03-31T04:40:37.689Z,89.90
2018-03-31T04:43:04.809Z,90.00
2018-03-31T04:45:31.934Z,89.80
2018-03-31T04:47:59.031Z,89.60
2018-03-31T04:50:26.124Z,89.40
2018-03-31T04:52:53.221Z,89.40
2018-03-31T04:55:20.327Z,89.70
2018-03-31T04:57:47.437Z,90.00
2018-03-31T05:00:14.573Z,89.80
2018-03-31T05:02:41.652Z,89.70
2018-03-31T05:05:08.790Z,89.80
2018-03-31T05:07:35.883Z,90.00
2018-03-31T05:10:03.396Z,90.20
2018-03-31T05:12:30.507Z,90.20
2018-03-31T05:14:57.627Z,90.10
2018-03-31T05:17:24.779Z,90.20
2018-03-31T05:19:51.892Z,90.10
2018-03-31T05:22:19.052Z,89.90
2018-03-31T05:24:46.184Z,89.80
2018-03-31T05:27:13.243Z,89.90
2018-03-31T05:29:40.355Z,90.00
2018-03-31T05:32:07.448Z,90.10
2018-03-31T05:34:34.553Z,90.10
2018-03-31T05:37:01.644Z,90.20
2018-03-31T05:39:28.739Z,90.20
2018-03-31T05:41:55.805Z,90.60
2018-03-31T05:44:22.887Z,90.70
2018-03-31T05:46:50.006Z,90.60
2018-03-31T05:49:17.127Z,90.60
2018-03-31T05:51:44.254Z,90.40
2018-03-31T05:54:11.785Z,90.20
2018-03-31T05:56:38.886Z,90.20
2018-03-31T05:59:06.156Z,90.20
2018-03-31T06:01:33.305Z,90.10
2018-03-31T06:04:00.459Z,90.20
2018-03-31T06:06:27.545Z,90.20
2018-03-31T06:08:54.673Z,90.30
2018-03-31T06:11:21.817Z,90.30
2018-03-31T06:13:48.905Z,90.40
2018-03-31T06:16:16.016Z,90.30
2018-03-31T06:18:43.129Z,90.10
2018-03-31T06:21:10.287Z,90.10
2018-03-31T06:23:37.491Z,90.10
2018-03-31T06:26:05.001Z,89.70
2018-03-31T06:28:32.109Z,89.70
2018-03-31T06:30:59.227Z,89.60
2018-03-31T06:33:26.316Z,89.50
2018-03-31T06:35:53.412Z,89.20
2018-03-31T06:38:20.516Z,88.90
2018-03-31T06:40:47.622Z,88.80
2018-03-31T06:43:14.721Z,88.60
2018-03-31T06:45:41.835Z,88.60
2018-03-31T06:48:09.327Z,88.20
2018-03-31T06:50:36.450Z,88.20
2018-03-31T06:53:03.531Z,88.00
2018-03-31T06:55:30.657Z,87.80
2018-03-31T06:57:57.718Z,87.70
2018-03-31T07:00:24.815Z,87.30
2018-03-31T07:02:52.124Z,87.20
2018-03-31T07:05:19.256Z,87.30
2018-03-31T07:07:46.406Z,87.20
2018-03-31T07:10:13.533Z,87.20
2018-03-31T07:12:40.638Z,87.00
2018-03-31T07:15:07.758Z,86.80
2018-03-31T07:17:34.818Z,87.00
2018-03-31T07:20:01.883Z,87.10
2018-03-31T07:22:30.013Z,87.00
2018-03-31T07:24:57.125Z,86.80
2018-03-31T07:27:24.530Z,86.70
2018-03-31T07:29:52.296Z,86.40
2018-03-31T07:32:19.884Z,83.50
2018-03-31T07:34:47.148Z,83.10
2018-03-31T07:37:14.254Z,83.10
2018-03-31T07:39:41.430Z,82.20
2018-03-31T07:42:08.542Z,81.30
2018-03-31T07:44:36.913Z,81.90
2018-03-31T07:47:04.030Z,80.70
2018-03-31T07:49:31.101Z,80.60
2018-03-31T07:51:58.266Z,79.90
2018-03-31T07:54:25.522Z,80.50
2018-03-31T07:56:52.608Z,79.60
2018-03-31T07:59:19.701Z,80.10
2018-03-31T08:01:46.824Z,78.80
2018-03-31T08:04:14.304Z,78.30
2018-03-31T08:06:41.412Z,78.30
2018-03-31T08:09:08.648Z,76.80
2018-03-31T08:11:35.765Z,76.70
2018-03-31T08:14:02.910Z,77.30
2018-03-31T08:16:30.041Z,77.90
2018-03-31T08:18:57.278Z,77.20
2018-03-31T08:21:24.400Z,76.50
2018-03-31T08:23:51.486Z,77.40
2018-03-31T08:26:18.886Z,77.10
2018-03-31T08:28:46.009Z,77.10
2018-03-31T08:31:14.321Z,76.50
2018-03-31T08:33:41.453Z,77.20
2018-03-31T08:36:08.534Z,74.40
2018-03-31T08:38:36.007Z,74.60
2018-03-31T08:41:03.230Z,74.60
2018-03-31T08:43:30.390Z,72.70
2018-03-31T08:45:57.500Z,70.30
2018-03-31T08:48:24.628Z,69.40
2018-03-31T08:50:51.828Z,70.70
2018-03-31T08:53:19.755Z,72.40
2018-03-31T08:55:46.913Z,72.40
2018-03-31T08:58:14.300Z,72.10
2018-03-31T09:00:41.432Z,71.70
2018-03-31T09:03:08.652Z,71.10
2018-03-31T09:05:35.793Z,70.80
2018-03-31T09:08:02.911Z,71.50
2018-03-31T09:10:29.993Z,71.40
2018-03-31T09:12:57.447Z,70.60
2018-03-31T09:15:24.794Z,68.90
2018-03-31T09:17:52.831Z,70.20
2018-03-31T09:20:19.907Z,70.10
2018-03-31T09:22:47.018Z,69.60
2018-03-31T09:25:14.507Z,69.50
2018-03-31T09:27:48.337Z,69.30
2018-03-31T09:30:21.740Z,68.50
2018-03-31T09:32:52.971Z,68.50
2018-03-31T09:35:20.157Z,68.70
2018-03-31T09:37:47.798Z,69.60
2018-03-31T09:40:15.084Z,69.60
2018-03-31T09:42:42.184Z,68.80
2018-03-31T09:45:09.478Z,67.20
2018-03-31T09:47:36.655Z,67.10
2018-03-31T09:50:03.980Z,64.60
2018-03-31T09:52:41.234Z,65.10
2018-03-31T09:55:09.232Z,64.50
2018-03-31T09:57:40.332Z,67.00
2018-03-31T10:00:07.481Z,64.20
2018-03-31T10:02:34.842Z,63.70
2018-03-31T10:05:01.926Z,63.20
2018-03-31T10:07:29.402Z,62.60
2018-03-31T10:09:56.522Z,62.60
2018-03-31T10:12:23.988Z,65.00
2018-03-31T10:14:51.103Z,65.00
2018-03-31T10:17:18.209Z,63.10
2018-03-31T10:19:45.300Z,61.50
2018-03-31T10:22:12.414Z,62.90
2018-03-31T10:24:39.555Z,62.70
2018-03-31T10:27:06.641Z,61.70
2018-03-31T10:29:33.731Z,62.90
2018-03-31T10:32:00.809Z,62.00
2018-03-31T10:34:27.938Z,61.60
2018-03-31T10:36:55.045Z,61.00
2018-03-31T10:39:22.146Z,63.80
2018-03-31T10:41:49.217Z,64.30
2018-03-31T10:44:16.332Z,64.20
2018-03-31T10:46:43.403Z,65.30
2018-03-31T10:49:10.699Z,63.70
2018-03-31T10:51:38.036Z,63.80
2018-03-31T10:54:05.150Z,63.60
2018-03-31T10:56:32.206Z,60.70
2018-03-31T10:58:59.315Z,61.50
2018-03-31T11:01:26.408Z,62.60
2018-03-31T11:03:53.503Z,61.00
2018-03-31T11:06:20.614Z,63.60
2018-03-31T11:08:47.736Z,61.10
2018-03-31T11:11:14.815Z,60.90
2018-03-31T11:13:41.897Z,57.70
2018-03-31T11:16:09.246Z,58.90
2018-03-31T11:18:36.312Z,59.60
2018-03-31T11:21:03.432Z,61.70
2018-03-31T11:23:30.532Z,62.10
2018-03-31T11:25:57.635Z,56.50
2018-03-31T11:28:24.712Z,58.20
2018-03-31T11:30:51.867Z,58.40
2018-03-31T11:33:18.929Z,58.60
2018-03-31T11:35:46.069Z,57.40
2018-03-31T11:38:13.145Z,54.90
2018-03-31T11:40:41.540Z,56.10
2018-03-31T11:43:08.616Z,56.20
2018-03-31T11:45:35.815Z,56.70
2018-03-31T11:48:02.920Z,57.90
2018-03-31T11:50:30.012Z,56.50
2018-03-31T11:52:57.088Z,52.90
2018-03-31T11:55:24.545Z,56.40
2018-03-31T11:57:51.931Z,58.50
2018-03-31T12:00:19.050Z,58.40
2018-03-31T12:02:46.445Z,57.20
2018-03-31T12:05:17.486Z,54.60
2018-03-31T12:07:50.077Z,56.40
2018-03-31T12:10:17.434Z,56.30
2018-03-31T12:12:44.591Z,57.40
2018-03-31T12:15:12.068Z,59.60
2018-03-31T12:17:39.176Z,59.60
2018-03-31T12:20:06.258Z,59.20
2018-03-31T12:22:33.776Z,60.30
2018-03-31T12:25:00.900Z,58.60
2018-03-31T12:27:28.039Z,58.80
2018-03-31T12:30:12.886Z,58.00
2018-03-31T12:32:40.009Z,58.90
2018-03-31T12:35:07.297Z,59.90
2018-03-31T12:37:34.394Z,58.70
2018-03-31T12:40:01.467Z,58.70
2018-03-31T12:42:28.568Z,59.70
2018-03-31T12:44:55.656Z,57.90
2018-03-31T12:47:22.746Z,58.10
2018-03-31T12:49:49.859Z,58.40
2018-03-31T12:52:16.983Z,54.60
2018-03-31T12:54:44.102Z,53.30
2018-03-31T12:57:11.893Z,55.40
2018-03-31T12:59:38.986Z,55.50
2018-03-31T13:02:06.089Z,54.60
2018-03-31T13:04:33.560Z,57.60
2018-03-31T13:07:00.647Z,57.60
2018-03-31T13:09:27.720Z,59.40
2018-03-31T13:11:54.832Z,58.80
2018-03-31T13:14:21.902Z,59.20
2018-03-31T13:16:48.998Z,58.60
2018-03-31T13:19:16.066Z,59.70
2018-03-31T13:21:43.154Z,59.80
2018-03-31T13:24:10.271Z,57.60
2018-03-31T13:26:37.591Z,57.50
2018-03-31T13:29:04.704Z,57.70
2018-03-31T13:31:31.768Z,56.80
2018-03-31T13:33:58.903Z,56.30
2018-03-31T13:36:25.973Z,56.30
2018-03-31T13:38:53.102Z,57.50
2018-03-31T13:41:20.224Z,55.20
2018-03-31T13:43:47.352Z,55.60
2018-03-31T13:46:14.454Z,56.30
2018-03-31T13:48:41.567Z,56.40
2018-03-31T13:51:09.069Z,55.30
2018-03-31T13:53:36.180Z,55.30
2018-03-31T13:56:03.285Z,56.40
2018-03-31T13:58:30.400Z,56.20
2018-03-31T14:00:57.895Z,55.20
2018-03-31T14:03:25.052Z,55.10
2018-03-31T14:05:52.309Z,56.90
2018-03-31T14:08:19.424Z,57.90
2018-03-31T14:10:46.526Z,58.10
2018-03-31T14:13:13.607Z,56.70
2018-03-31T14:15:40.714Z,56.60
2018-03-31T14:18:08.203Z,55.60
2018-03-31T14:20:35.269Z,56.00
2018-03-31T14:23:02.353Z,56.10
2018-03-31T14:25:29.492Z,54.90
2018-03-31T14:27:56.606Z,54.40
2018-03-31T14:30:24.096Z,55.10
2018-03-31T14:32:51.210Z,55.10
2018-03-31T14:35:18.296Z,54.00
2018-03-31T14:37:45.369Z,55.20
2018-03-31T14:40:12.477Z,56.50
2018-03-31T14:42:39.556Z,56.10
2018-03-31T14:45:06.663Z,56.10
2018-03-31T14:47:33.753Z,55.50
2018-03-31T14:50:00.945Z,54.30
2018-03-31T14:52:28.143Z,54.40
2018-03-31T14:54:55.293Z,55.10
2018-03-31T14:57:22.408Z,55.30
2018-03-31T14:59:49.559Z,55.50
2018-03-31T15:02:16.654Z,52.80
2018-03-31T15:04:43.752Z,50.20
2018-03-31T15:07:10.828Z,49.20
2018-03-31T15:09:37.973Z,45.30
2018-03-31T15:12:05.140Z,46.10
2018-03-31T15:14:32.260Z,46.00
2018-03-31T15:16:59.327Z,49.60
2018-03-31T15:19:26.446Z,51.40
2018-03-31T15:21:53.595Z,51.90
2018-03-31T15:24:20.715Z,50.40
2018-03-31T15:26:47.785Z,47.00
2018-03-31T15:29:14.908Z,46.50
2018-03-31T15:31:42.023Z,44.20
2018-03-31T15:34:09.145Z,44.70
2018-03-31T15:36:37.113Z,44.00
2018-03-31T15:39:04.226Z,45.80
2018-03-31T15:41:31.377Z,45.30
2018-03-31T15:43:58.463Z,44.90
2018-03-31T15:46:25.564Z,43.80
2018-03-31T15:48:52.624Z,44.60
2018-03-31T15:51:19.733Z,44.50
2018-03-31T15:53:46.836Z,44.40
2018-03-31T15:56:13.947Z,44.60
2018-03-31T15:58:41.068Z,44.70
2018-03-31T16:01:08.150Z,43.10
2018-03-31T16:03:35.244Z,43.60
2018-03-31T16:06:02.324Z,43.20
2018-03-31T16:08:29.796Z,42.60
2018-03-31T16:10:56.915Z,42.50
2018-03-31T16:13:24.957Z,42.50
2018-03-31T16:15:52.153Z,42.50
2018-03-31T16:18:19.315Z,43.20
2018-03-31T16:20:46.411Z,43.30
2018-03-31T16:23:13.503Z,43.20
2018-03-31T16:25:40.704Z,43.30
2018-03-31T16:28:07.790Z,44.00
2018-03-31T16:30:35.095Z,42.30
2018-03-31T16:33:02.267Z,43.70
2018-03-31T16:35:29.386Z,45.60
2018-03-31T16:37:56.511Z,47.00
2018-03-31T16:40:23.626Z,48.00
2018-03-31T16:42:50.777Z,49.50
2018-03-31T16:45:17.896Z,50.10
2018-03-31T16:47:45.013Z,50.50
2018-03-31T16:50:12.085Z,50.70
2018-03-31T16:52:39.237Z,51.50
2018-03-31T16:55:06.331Z,52.50
2018-03-31T16:57:33.557Z,51.30
2018-03-31T17:00:01.049Z,52.10
2018-03-31T17:02:28.144Z,52.10
2018-03-31T17:04:55.207Z,53.10
2018-03-31T17:07:24.439Z,55.00
2018-03-31T17:09:51.525Z,56.00
2018-03-31T17:12:18.640Z,57.20
2018-03-31T17:14:45.744Z,58.20
2018-03-31T17:17:12.845Z,59.00
2018-03-31T17:19:39.974Z,59.60
2018-03-31T17:22:07.088Z,60.10
2018-03-31T17:24:34.208Z,60.60
2018-03-31T17:27:01.297Z,60.90
2018-03-31T17:29:28.360Z,61.20
2018-03-31T17:31:55.463Z,61.50
2018-03-31T17:34:22.546Z,61.60
2018-03-31T17:36:49.659Z,61.90
2018-03-31T17:39:16.743Z,62.30
2018-03-31T17:41:43.906Z,62.30
2018-03-31T17:44:10.993Z,62.70
2018-03-31T17:46:38.071Z,62.70
2018-03-31T17:49:05.168Z,62.90
2018-03-31T17:51:32.268Z,63.40
2018-03-31T17:53:59.380Z,63.50
2018-03-31T17:56:26.627Z,64.00
2018-03-31T17:58:54.320Z,64.00
2018-03-31T18:01:21.406Z,64.30
2018-03-31T18:03:48.496Z,64.80
2018-03-31T18:06:15.613Z,65.00
2018-03-31T18:08:42.716Z,65.60
2018-03-31T18:11:09.819Z,65.30
2018-03-31T18:13:36.959Z,65.80
2018-03-31T18:16:05.306Z,66.20
2018-03-31T18:18:32.423Z,67.40
2018-03-31T18:20:59.904Z,67.90
2018-03-31T18:23:31.919Z,67.90
2018-03-31T18:25:59.032Z,68.00
2018-03-31T18:28:26.161Z,68.10
2018-03-31T18:30:53.274Z,67.90
2018-03-31T18:33:20.586Z,68.10
2018-03-31T18:35:47.689Z,68.10
2018-03-31T18:38:15.097Z,68.50
2018-03-31T18:40:42.246Z,69.30
2018-03-31T18:43:09.344Z,69.20
2018-03-31T18:45:37.014Z,69.20
2018-03-31T18:48:09.263Z,69.20
2018-03-31T18:50:37.313Z,69.20
2018-03-31T18:53:04.420Z,69.60
2018-03-31T18:55:31.511Z,70.50
2018-03-31T18:57:58.595Z,70.80
2018-03-31T19:00:25.721Z,70.90
2018-03-31T19:02:52.825Z,70.90
2018-03-31T19:05:19.947Z,70.80
2018-03-31T19:07:47.073Z,70.50
2018-03-31T19:10:14.188Z,70.30
2018-03-31T19:12:41.252Z,70.80
2018-03-31T19:15:08.350Z,70.80
2018-03-31T19:17:35.438Z,71.00
2018-03-31T19:20:02.544Z,71.20
2018-03-31T19:22:29.682Z,71.40
2018-03-31T19:25:02.344Z,71.70
2018-03-31T19:27:29.461Z,72.20
2018-03-31T19:29:56.515Z,72.50
2018-03-31T19:32:23.592Z,72.80
2018-03-31T19:34:50.699Z,73.20
2018-03-31T19:37:17.763Z,73.80
2018-03-31T19:39:50.659Z,74.10
2018-03-31T19:42:17.737Z,74.00
2018-03-31T19:44:44.893Z,74.00
2018-03-31T19:47:11.972Z,74.20
2018-03-31T19:49:39.067Z,74.30
2018-03-31T19:52:06.194Z,74.30
2018-03-31T19:54:33.729Z,74.90
2018-03-31T19:57:00.795Z,74.90
2018-03-31T19:59:27.900Z,75.20
2018-03-31T20:01:54.965Z,75.20
2018-03-31T20:04:28.774Z,75.10
2018-03-31T20:06:55.855Z,75.00
2018-03-31T20:09:22.942Z,74.40
2018-03-31T20:11:50.069Z,73.80
2018-03-31T20:14:17.147Z,73.40
2018-03-31T20:16:44.278Z,73.00
2018-03-31T20:19:11.351Z,73.10
2018-03-31T20:21:38.463Z,73.40
2018-03-31T20:24:05.528Z,73.10
2018-03-31T20:26:32.647Z,73.20
2018-03-31T20:28:59.733Z,72.80
2018-03-31T20:31:26.833Z,72.60
2018-03-31T20:33:53.907Z,72.60
2018-03-31T20:36:21.003Z,73.00
2018-03-31T20:38:48.119Z,73.90
2018-03-31T20:41:15.219Z,74.60
2018-03-31T20:43:42.305Z,75.40
2018-03-31T20:46:09.401Z,75.90
2018-03-31T20:48:36.473Z,76.80
2018-03-31T20:51:03.584Z,76.80
2018-03-31T20:53:31.060Z,77.30
2018-03-31T20:55:58.187Z,77.30
2018-03-31T20:58:25.312Z,77.70
2018-03-31T21:00:52.415Z,77.70
2018-03-31T21:03:19.504Z,77.80
2018-03-31T21:05:46.664Z,77.80
2018-03-31T21:08:13.767Z,78.00
2018-03-31T21:10:40.900Z,78.30
2018-03-31T21:13:07.997Z,78.40
2018-03-31T21:15:35.062Z,78.50
2018-03-31T21:18:05.824Z,78.80
2018-03-31T21:20:33.967Z,78.80
2018-03-31T21:23:01.118Z,78.90
2018-03-31T21:25:28.190Z,79.10
2018-03-31T21:27:55.317Z,79.40
2018-03-31T21:30:22.402Z,79.40
2018-03-31T21:32:49.523Z,79.50
2018-03-31T21:35:16.608Z,79.60
2018-03-31T21:37:43.729Z,79.70
2018-03-31T21:40:10.850Z,79.70
2018-03-31T21:42:38.043Z,79.80
2018-03-31T21:45:05.126Z,79.90
2018-03-31T21:47:32.234Z,79.90
2018-03-31T21:49:59.364Z,80.00
2018-03-31T21:52:26.577Z,79.90
2018-03-31T21:54:53.741Z,79.90
2018-03-31T21:57:20.859Z,79.80
2018-03-31T21:59:47.981Z,79.80
2018-03-31T22:02:15.132Z,79.80
2018-03-31T22:04:42.211Z,80.00
2018-03-31T22:07:09.322Z,79.90
2018-03-31T22:09:36.462Z,79.90
2018-03-31T22:12:03.619Z,80.00
2018-03-31T22:14:36.349Z,80.00
2018-03-31T22:17:03.411Z,79.90
2018-03-31T22:19:30.536Z,80.00
2018-03-31T22:21:57.676Z,80.00
2018-03-31T22:24:24.785Z,79.70
2018-03-31T22:26:51.872Z,79.80
2018-03-31T22:29:19.041Z,79.50
2018-03-31T22:31:46.132Z,78.80
2018-03-31T22:34:13.224Z,78.90
2018-03-31T22:36:40.324Z,78.70
2018-03-31T22:39:07.670Z,78.90
2018-03-31T22:41:34.799Z,79.10
2018-03-31T22:44:01.921Z,79.50
2018-03-31T22:46:29.004Z,78.90
2018-03-31T22:48:56.126Z,78.40
2018-03-31T22:51:23.646Z,76.60
2018-03-31T22:53:50.747Z,76.60
2018-03-31T22:56:18.275Z,75.60
2018-03-31T22:58:45.399Z,75.60
2018-03-31T23:01:12.507Z,75.50
2018-03-31T23:03:39.635Z,75.50
2018-03-31T23:06:07.107Z,76.40
2018-03-31T23:08:34.232Z,76.40
2018-03-31T23:11:01.341Z,76.60
2018-03-31T23:13:28.462Z,76.80
2018-03-31T23:15:55.572Z,77.20
2018-03-31T23:18:22.673Z,77.30
2018-03-31T23:20:49.765Z,77.40
2018-03-31T23:23:16.879Z,77.70
2018-03-31T23:25:43.990Z,77.70
2018-03-31T23:28:11.080Z,77.80
2018-03-31T23:30:38.228Z,77.90
2018-03-31T23:33:05.340Z,77.90
2018-03-31T23:35:32.451Z,77.90
2018-03-31T23:37:59.528Z,78.20
2018-03-31T23:40:26.636Z,78.60
2018-03-31T23:42:53.729Z,78.70
2018-03-31T23:45:20.820Z,78.80
2018-03-31T23:47:47.941Z,78.90
2018-03-31T23:50:15.079Z,78.90
2018-03-31T23:52:42.160Z,78.80
2018-03-31T23:55:09.264Z,78.70
2018-03-31T23:57:36.381Z,78.70
